Time;durP1;ratioP1;P1;durP2;ratioP2;P2;SDS_P1;SDS_P2;PMS_P1;PMS_P2;Temp;Humidity;BMP_temperature;BMP_pressure;BME280_temperature;BME280_humidity;BME280_pressure;Samples;Min_cycle;Max_cycle;Signal;HPM_P1;HPM_P2
2023/08/10 00:00:45;;;;;;;3.63;0.68;;;;;;;20.66;49.04;102036.13;16132650;19;130934;-64
2023/08/10 00:06:07;;;;;;;1.35;0.60;;;;;;;20.66;48.98;102038.06;16131575;19;130442;-65
2023/08/10 00:11:29;;;;;;;1.20;0.50;;;;;;;20.65;49.05;102039.16;16123378;19;131176;-65
2023/08/10 00:16:51;;;;;;;0.98;0.73;;;;;;;20.64;49.13;102052.19;16126828;19;129629;-64
2023/08/10 00:22:13;;;;;;;1.17;0.70;;;;;;;20.64;48.76;102046.63;16125243;19;130274;-64
2023/08/10 00:27:38;;;;;;;1.35;0.50;;;;;;;20.63;49.08;102042.13;16121652;19;129892;-64
2023/08/10 00:33:00;;;;;;;1.40;0.50;;;;;;;20.60;49.09;102032.34;16129335;19;131486;-64
2023/08/10 00:38:22;;;;;;;1.55;0.50;;;;;;;20.60;48.67;102037.91;16121404;19;129940;-64
2023/08/10 00:43:44;;;;;;;1.63;0.50;;;;;;;20.60;48.86;102040.69;16123055;19;131386;-64
2023/08/10 00:49:07;;;;;;;0.68;0.65;;;;;;;20.59;48.63;102041.75;16122961;19;130194;-65
2023/08/10 00:54:29;;;;;;;0.90;0.57;;;;;;;20.57;48.71;102041.13;16118026;19;130842;-65
2023/08/10 00:59:52;;;;;;;0.85;0.50;;;;;;;20.57;48.86;102043.91;16120784;19;130617;-64
2023/08/10 01:05:14;;;;;;;0.70;0.60;;;;;;;20.56;48.89;102047.78;16115692;19;130121;-64
2023/08/10 01:11:05;;;;;;;0.93;0.45;;;;;;;20.55;48.67;102037.78;16119769;19;130613;-63
2023/08/10 01:16:29;;;;;;;0.60;0.40;;;;;;;20.55;48.87;102040.56;16119303;19;129763;-64
2023/08/10 01:21:57;;;;;;;1.27;0.63;;;;;;;20.53;49.12;102042.72;16119139;19;131493;-64
2023/08/10 01:27:20;;;;;;;0.52;0.47;;;;;;;20.54;48.74;102040.75;16119187;19;130368;-63
2023/08/10 01:32:42;;;;;;;1.63;0.52;;;;;;;20.52;48.91;102049.34;16116816;19;131035;-64
2023/08/10 01:38:04;;;;;;;0.98;0.55;;;;;;;20.52;48.79;102040.13;16117918;19;129702;-63
2023/08/10 01:43:26;;;;;;;0.82;0.60;;;;;;;20.51;48.88;102032.88;16110074;19;129571;-64
2023/08/10 01:48:52;;;;;;;1.05;0.63;;;;;;;20.51;48.89;102030.09;16114078;19;131026;-63
2023/08/10 01:54:17;;;;;;;0.80;0.50;;;;;;;20.50;48.67;102031.19;16108653;19;130302;-65
2023/08/10 01:59:39;;;;;;;0.68;0.50;;;;;;;20.49;48.87;102024.78;16116886;19;129898;-63
2023/08/10 02:05:01;;;;;;;2.35;0.50;;;;;;;20.48;49.16;102034.19;16112313;19;130088;-64
2023/08/10 02:10:23;;;;;;;2.25;0.40;;;;;;;20.47;48.74;102031.66;16112902;19;130301;-64
2023/08/10 02:15:45;;;;;;;1.55;0.60;;;;;;;20.47;48.75;102049.19;16120266;19;129880;-63
2023/08/10 02:21:07;;;;;;;0.50;0.30;;;;;;;20.46;48.90;102036.34;16112801;19;130227;-64
2023/08/10 02:26:29;;;;;;;0.70;0.40;;;;;;;20.45;48.91;102040.22;16112116;19;130135;-64
2023/08/10 02:31:52;;;;;;;0.68;0.40;;;;;;;20.44;48.77;102032.94;16106656;19;130185;-63
2023/08/10 02:37:14;;;;;;;0.93;0.50;;;;;;;20.44;48.85;102033.81;16115790;19;129640;-64
2023/08/10 02:42:35;;;;;;;0.90;0.50;;;;;;;20.43;49.00;102039.63;16107724;19;130621;-64
2023/08/10 02:47:57;;;;;;;1.67;0.40;;;;;;;20.43;48.93;102045.19;16109889;19;129926;-64
2023/08/10 02:53:20;;;;;;;0.65;0.40;;;;;;;20.41;48.87;102047.34;16106938;19;129624;-64
2023/08/10 02:58:42;;;;;;;1.33;0.50;;;;;;;20.40;48.96;102046.47;16130447;19;129897;-64
2023/08/10 03:04:05;;;;;;;1.75;0.60;;;;;;;20.41;48.99;102055.69;16124294;19;130973;-64
2023/08/10 03:09:27;;;;;;;1.83;0.40;;;;;;;20.40;49.05;102048.41;16123318;19;129668;-64
2023/08/10 03:14:49;;;;;;;0.75;0.40;;;;;;;20.39;48.63;102053.09;16125170;19;129910;-64
2023/08/10 03:20:16;;;;;;;0.70;0.45;;;;;;;20.40;48.53;102051.19;16124928;19;130370;-64
2023/08/10 03:25:39;;;;;;;0.50;0.40;;;;;;;20.39;48.95;102049.50;16124901;19;130242;-64
2023/08/10 03:31:01;;;;;;;0.40;0.40;;;;;;;20.38;48.80;102056.13;16118209;19;131538;-64
2023/08/10 03:36:23;;;;;;;0.68;0.40;;;;;;;20.38;48.89;102061.69;16125043;19;130237;-64
2023/08/10 03:41:45;;;;;;;1.00;0.38;;;;;;;20.37;48.63;102054.44;16124676;19;129832;-64
2023/08/10 03:47:07;;;;;;;0.57;0.50;;;;;;;20.37;48.84;102060.00;16120446;19;129844;-64
2023/08/10 03:52:29;;;;;;;0.90;0.57;;;;;;;20.36;48.75;102053.59;16121959;19;130397;-64
2023/08/10 03:57:51;;;;;;;0.47;0.30;;;;;;;20.35;48.71;102060.22;16119929;19;131559;-64
2023/08/10 04:03:13;;;;;;;0.40;0.40;;;;;;;20.35;48.68;102078.81;16118044;19;129770;-64
2023/08/10 04:08:35;;;;;;;0.63;0.40;;;;;;;20.34;49.08;102071.56;16117472;19;130204;-64
2023/08/10 04:13:57;;;;;;;0.50;0.40;;;;;;;20.33;48.65;102061.50;16119523;19;130677;-64
2023/08/10 04:19:19;;;;;;;0.45;0.40;;;;;;;20.33;48.91;102075.41;16115359;19;131966;-64
2023/08/10 04:24:41;;;;;;;0.52;0.50;;;;;;;20.32;48.85;102079.28;16121292;19;132316;-64
2023/08/10 04:30:06;;;;;;;0.68;0.40;;;;;;;20.32;48.66;102084.81;16119746;19;132585;-64
2023/08/10 04:35:28;;;;;;;0.28;0.25;;;;;;;20.31;49.04;102085.94;16121057;19;131179;-64
2023/08/10 04:40:50;;;;;;;0.40;0.40;;;;;;;20.31;48.93;102086.78;16118315;19;130490;-64
2023/08/10 04:46:15;;;;;;;0.30;0.30;;;;;;;20.31;49.10;102084.00;16117894;19;129895;-65
2023/08/10 04:51:37;;;;;;;1.92;0.30;;;;;;;20.28;48.65;102079.75;16113070;19;131736;-65
2023/08/10 04:57:00;;;;;;;0.55;0.30;;;;;;;20.29;48.96;102089.78;16117908;19;130684;-65
2023/08/10 05:02:22;;;;;;;0.45;0.45;;;;;;;20.29;48.99;102098.13;16116089;19;129700;-64
2023/08/10 05:07:47;;;;;;;1.80;0.50;;;;;;;20.28;48.75;102101.13;16114166;19;131039;-64
2023/08/10 05:13:09;;;;;;;0.75;0.35;;;;;;;20.28;49.10;102096.44;16113034;19;131097;-65
2023/08/10 05:18:31;;;;;;;0.40;0.30;;;;;;;20.28;49.05;102099.19;16115800;19;130670;-65
2023/08/10 05:23:56;;;;;;;;;;;;;;;20.24;49.06;102089.63;16114689;19;130798;-64
2023/08/10 05:29:19;;;;;;;0.60;0.40;;;;;;;20.27;48.84;102094.72;16117188;19;130611;-64
2023/08/10 05:34:40;;;;;;;0.40;0.40;;;;;;;20.26;48.89;102089.38;16114048;19;129984;-64
2023/08/10 05:40:12;;;;;;;1.00;0.45;;;;;;;20.26;48.81;102092.16;16112717;19;130649;-65
2023/08/10 05:45:33;;;;;;;0.80;0.40;;;;;;;20.26;48.68;102093.03;16109215;19;130060;-68
2023/08/10 05:50:55;;;;;;;0.77;0.52;;;;;;;20.26;49.11;102095.81;16114797;19;129750;-64
2023/08/10 05:56:17;;;;;;;0.50;0.38;;;;;;;20.28;49.12;102106.69;16116669;19;131351;-67
2023/08/10 06:01:43;;;;;;;0.32;0.22;;;;;;;20.28;48.84;102101.97;16112055;19;130156;-69
2023/08/10 06:07:05;;;;;;;;;;;;;;;20.26;48.76;102097.72;16117152;19;129564;-63
2023/08/10 06:12:27;;;;;;;0.50;0.32;;;;;;;20.34;49.09;102096.56;16114809;19;130200;-67
2023/08/10 06:17:49;;;;;;;0.90;0.40;;;;;;;20.43;48.91;102098.81;16118425;19;129675;-66
2023/08/10 06:23:12;;;;;;;0.85;0.43;;;;;;;20.55;48.99;102089.72;16113780;19;131617;-68
2023/08/10 06:28:35;;;;;;;0.32;0.30;;;;;;;20.69;48.74;102090.41;16112699;19;130561;-67
2023/08/10 06:33:57;;;;;;;4.57;0.50;;;;;;;20.80;48.39;102086.88;16115818;19;129588;-68
2023/08/10 06:39:19;;;;;;;3.20;0.40;;;;;;;20.88;48.65;102089.38;16108746;19;134154;-68
2023/08/10 06:44:41;;;;;;;1.85;0.40;;;;;;;20.98;48.50;102093.50;16111640;19;129382;-68
2023/08/10 06:50:05;;;;;;;1.73;0.50;;;;;;;21.05;48.71;102088.69;16111569;19;130360;-68
2023/08/10 06:55:28;;;;;;;1.10;0.38;;;;;;;21.12;48.45;102083.03;16110087;19;132067;-68
2023/08/10 07:00:51;;;;;;;4.00;0.40;;;;;;;21.19;48.30;102087.44;16109868;19;130245;-68
2023/08/10 07:06:13;;;;;;;1.80;0.50;;;;;;;21.25;48.23;102076.47;16109930;19;130126;-68
2023/08/10 07:11:35;;;;;;;1.42;0.35;;;;;;;21.31;47.80;102081.06;16105255;19;131275;-70
2023/08/10 07:16:57;;;;;;;0.82;0.50;;;;;;;21.36;47.97;102086.78;16101759;19;129921;-69
2023/08/10 07:22:19;;;;;;;3.83;0.43;;;;;;;21.41;47.81;102086.94;16114239;19;131216;-69
2023/08/10 07:27:41;;;;;;;0.90;0.47;;;;;;;21.46;47.47;102086.22;16109364;19;130697;-70
2023/08/10 07:33:03;;;;;;;3.88;0.77;;;;;;;21.50;47.58;102088.31;16106265;19;131796;-69
2023/08/10 07:38:25;;;;;;;0.93;0.50;;;;;;;21.55;47.54;102086.72;16107943;19;130859;-68
2023/08/10 07:43:48;;;;;;;4.97;0.75;;;;;;;21.58;47.63;102076.00;16118739;19;130381;-68
2023/08/10 07:49:11;;;;;;;2.22;0.60;;;;;;;21.62;47.50;102087.50;16126146;19;130608;-68
2023/08/10 07:54:33;;;;;;;2.42;0.55;;;;;;;21.65;47.06;102087.03;16121495;19;129965;-69
2023/08/10 07:59:54;;;;;;;2.42;0.80;;;;;;;21.67;46.67;102096.81;16123972;19;129629;-66
2023/08/10 08:05:17;;;;;;;1.05;0.40;;;;;;;21.70;46.95;102091.88;16127051;19;129818;-63
2023/08/10 08:10:40;;;;;;;1.42;0.80;;;;;;;21.71;46.32;102102.75;16124751;19;130183;-70
2023/08/10 08:16:02;;;;;;;3.22;0.60;;;;;;;21.71;46.56;102086.06;16123195;19;130852;-69
2023/08/10 08:21:26;;;;;;;2.28;0.90;;;;;;;21.73;46.08;102086.66;16124664;19;130701;-69
2023/08/10 08:26:48;;;;;;;5.03;0.80;;;;;;;21.75;45.99;102086.41;16122616;19;131599;-69
2023/08/10 08:32:10;;;;;;;2.80;0.80;;;;;;;21.75;46.44;102080.84;16119358;19;130528;-69
2023/08/10 08:37:47;;;;;;;0.63;0.50;;;;;;;21.77;46.04;102085.13;16119915;19;130086;-69
2023/08/10 08:43:10;;;;;;;2.45;0.57;;;;;;;21.78;46.37;102081.25;16121010;19;130509;-69
2023/08/10 08:48:33;;;;;;;4.68;0.60;;;;;;;21.78;46.22;102064.53;16120360;19;129452;-69
2023/08/10 08:53:56;;;;;;;2.67;0.60;;;;;;;21.78;46.08;102061.75;16120052;19;129845;-69
2023/08/10 08:59:18;;;;;;;1.55;0.65;;;;;;;21.79;45.74;102066.19;16119133;19;129426;-69
2023/08/10 09:04:40;;;;;;;1.17;0.57;;;;;;;21.80;46.03;102055.91;16122685;19;129571;-70
2023/08/10 09:10:02;;;;;;;2.03;0.60;;;;;;;21.80;45.75;102059.53;16122712;19;129441;-69
2023/08/10 09:15:27;;;;;;;0.77;0.45;;;;;;;21.79;46.07;102049.47;16120274;19;129642;-70
2023/08/10 09:20:50;;;;;;;2.55;0.65;;;;;;;21.80;46.09;102055.91;16116412;19;129779;-70
2023/08/10 09:26:16;;;;;;;1.40;0.60;;;;;;;21.79;45.94;102052.28;16118509;19;130770;-69
2023/08/10 09:31:42;;;;;;;2.58;0.70;;;;;;;21.79;46.24;102051.44;16116416;19;131502;-69
2023/08/10 09:37:04;;;;;;;1.25;0.60;;;;;;;21.77;46.45;102061.97;16119922;19;129998;-69
2023/08/10 09:42:31;;;;;;;0.88;0.60;;;;;;;21.76;46.47;102051.91;16116137;19;134330;-70
2023/08/10 09:47:54;;;;;;;0.93;0.70;;;;;;;21.74;46.37;102057.72;16118719;19;129426;-69
2023/08/10 09:53:16;;;;;;;2.78;0.73;;;;;;;21.72;46.46;102054.34;16117850;19;131028;-69
2023/08/10 09:58:40;;;;;;;2.85;0.50;;;;;;;21.71;46.57;102061.00;16118214;19;130479;-69
2023/08/10 10:04:03;;;;;;;4.57;0.87;;;;;;;21.70;46.32;102062.06;16112682;19;129819;-69
2023/08/10 10:09:28;;;;;;;1.08;0.57;;;;;;;21.68;46.27;102053.09;16113009;19;130143;-69
2023/08/10 10:14:51;;;;;;;2.50;0.63;;;;;;;21.66;46.51;102044.16;16117561;19;130179;-70
2023/08/10 10:20:13;;;;;;;1.05;0.47;;;;;;;21.64;46.36;102035.19;16113046;19;129664;-69
2023/08/10 10:25:38;;;;;;;1.10;0.65;;;;;;;21.62;46.60;102037.38;16131014;19;129575;-69
2023/08/10 10:31:12;;;;;;;1.13;0.50;;;;;;;21.60;46.51;102029.25;16131458;19;130276;-69
2023/08/10 10:36:38;;;;;;;0.85;0.50;;;;;;;21.58;46.50;102025.00;16131209;19;130137;-69
2023/08/10 10:42:01;;;;;;;0.47;0.40;;;;;;;21.56;46.64;102035.53;16130469;19;129635;-69
2023/08/10 10:47:40;;;;;;;1.08;0.35;;;;;;;21.56;46.75;102041.97;16129670;19;130471;-70
2023/08/10 10:53:05;;;;;;;1.50;0.73;;;;;;;21.54;46.77;102038.56;16134883;19;130882;-69
2023/08/10 10:58:29;;;;;;;0.60;0.30;;;;;;;21.51;46.83;102034.34;16131012;19;129633;-70
2023/08/10 11:03:53;;;;;;;0.93;0.50;;;;;;;21.50;46.68;102029.84;16124190;19;131105;-69
2023/08/10 11:09:14;;;;;;;2.78;0.52;;;;;;;21.51;46.97;102039.91;16127524;19;129496;-70
2023/08/10 11:14:38;;;;;;;0.90;0.55;;;;;;;21.50;46.79;102040.97;16125401;19;130944;-71
2023/08/10 11:20:01;;;;;;;0.70;0.50;;;;;;;21.48;46.62;102032.00;16143994;19;130325;-70
2023/08/10 11:25:25;;;;;;;1.48;0.70;;;;;;;21.49;47.19;102033.72;16134518;19;129727;-70
2023/08/10 11:30:48;;;;;;;2.10;0.95;;;;;;;21.50;46.74;102040.13;16126029;19;130676;-70
2023/08/10 11:36:10;;;;;;;5.18;1.67;;;;;;;21.50;47.11;102023.41;16122813;19;129577;-71
2023/08/10 11:41:43;;;;;;;5.30;1.60;;;;;;;21.49;46.80;102017.00;16118445;19;130424;-70
2023/08/10 11:47:05;;;;;;;5.90;1.60;;;;;;;21.49;46.80;102028.16;16121836;19;129839;-70
2023/08/10 11:52:28;;;;;;;3.70;1.40;;;;;;;21.48;47.12;102026.41;16123900;19;129855;-70
2023/08/10 11:57:52;;;;;;;4.90;1.55;;;;;;;21.48;46.58;102015.28;16124069;19;130791;-70
2023/08/10 12:03:22;;;;;;;4.32;1.65;;;;;;;21.49;46.92;102028.16;16118429;19;129030;-70
2023/08/10 12:08:53;;;;;;;3.33;1.40;;;;;;;21.48;46.92;102006.06;16122339;19;130098;-70
2023/08/10 12:14:19;;;;;;;3.67;1.70;;;;;;;21.49;46.97;102005.00;16117346;19;130779;-70
2023/08/10 12:19:41;;;;;;;3.47;1.20;;;;;;;21.48;46.86;102011.63;16123912;19;130005;-70
2023/08/10 12:25:03;;;;;;;3.65;1.30;;;;;;;21.47;46.87;102007.19;16114756;19;130823;-70
2023/08/10 12:30:25;;;;;;;4.18;1.40;;;;;;;21.47;46.80;102002.44;16116841;19;130015;-71
2023/08/10 12:35:49;;;;;;;6.88;2.30;;;;;;;21.47;47.08;102005.22;16114360;19;131608;-70
2023/08/10 12:41:11;;;;;;;6.38;1.60;;;;;;;21.47;46.72;102005.22;16121076;19;129981;-72
2023/08/10 12:46:33;;;;;;;4.80;1.48;;;;;;;21.56;46.07;102016.03;16118646;19;130253;-71
2023/08/10 12:51:55;;;;;;;4.50;1.52;;;;;;;21.66;45.74;102013.53;16120354;19;129514;-71
2023/08/10 12:57:17;;;;;;;3.60;1.63;;;;;;;21.72;45.28;102008.94;16119159;19;129851;-74
2023/08/10 13:02:40;;;;;;;9.23;2.10;;;;;;;21.80;44.83;102017.75;16117828;19;130814;-71
2023/08/10 13:08:03;;;;;;;10.15;1.95;;;;;;;21.86;44.85;102003.97;16122165;19;130369;-71
2023/08/10 13:13:24;;;;;;;5.10;1.60;;;;;;;21.88;43.92;102002.63;16117593;19;131444;-70
2023/08/10 13:18:46;;;;;;;5.88;1.38;;;;;;;21.93;43.70;102004.69;16116486;19;133122;-70
2023/08/10 13:24:08;;;;;;;3.10;1.30;;;;;;;21.91;43.98;101987.38;16117817;19;131649;-71
2023/08/10 13:29:30;;;;;;;5.25;1.38;;;;;;;21.89;43.55;101997.91;16112763;19;129311;-70
2023/08/10 13:34:53;;;;;;;6.03;1.70;;;;;;;21.83;43.89;101985.81;16116407;19;130170;-69
2023/08/10 13:40:15;;;;;;;3.15;1.58;;;;;;;21.79;44.22;102004.09;16116293;19;130806;-70
2023/08/10 13:45:37;;;;;;;3.30;1.50;;;;;;;21.75;44.65;101997.28;16111523;19;130987;-70
2023/08/10 13:50:59;;;;;;;4.47;1.33;;;;;;;21.72;44.54;101990.28;16118555;19;129663;-71
2023/08/10 13:56:21;;;;;;;4.55;1.52;;;;;;;21.70;44.91;101995.22;16109443;19;129899;-70
2023/08/10 14:01:43;;;;;;;2.03;1.45;;;;;;;21.66;44.76;101982.91;16112097;19;131088;-70
2023/08/10 14:07:05;;;;;;;3.70;1.25;;;;;;;21.66;45.01;101982.91;16116112;19;129725;-71
2023/08/10 14:12:28;;;;;;;2.58;1.20;;;;;;;21.65;45.24;101982.03;16115563;19;129536;-72
2023/08/10 14:17:53;;;;;;;2.67;1.38;;;;;;;21.63;45.26;101980.59;16108997;19;131106;-71
2023/08/10 14:23:15;;;;;;;3.30;1.27;;;;;;;21.60;45.24;101967.97;16113935;19;130604;-71
2023/08/10 14:28:37;;;;;;;4.45;1.50;;;;;;;21.60;44.97;101950.44;16108332;19;129481;-71
2023/08/10 14:34:00;;;;;;;3.85;1.10;;;;;;;21.57;45.30;101945.34;16115266;19;129828;-71
2023/08/10 14:39:22;;;;;;;3.00;1.30;;;;;;;21.58;45.58;101947.03;16112356;19;133695;-70
2023/08/10 14:44:44;;;;;;;2.92;1.30;;;;;;;21.58;45.53;101944.25;16113603;19;130736;-71
2023/08/10 14:50:07;;;;;;;4.20;1.35;;;;;;;21.57;45.50;101931.41;16108417;19;129508;-70
2023/08/10 14:55:29;;;;;;;6.03;1.52;;;;;;;21.56;45.51;101938.06;16116541;19;130512;-71
2023/08/10 15:00:51;;;;;;;1.50;1.30;;;;;;;21.55;45.44;101926.09;16119049;19;130852;-70
2023/08/10 15:06:13;;;;;;;2.47;1.08;;;;;;;21.55;45.54;101933.59;16119278;19;129954;-69
2023/08/10 15:11:36;;;;;;;3.65;1.02;;;;;;;21.59;45.13;101926.47;16126834;19;129704;-75
2023/08/10 15:16:58;;;;;;;2.88;1.20;;;;;;;21.60;45.51;101905.88;16125128;19;130768;-75
2023/08/10 15:22:20;;;;;;;2.00;1.10;;;;;;;21.61;45.44;101916.75;16125624;19;130433;-74
2023/08/10 15:27:43;;;;;;;3.90;1.20;;;;;;;21.62;45.67;101914.84;16133140;19;130266;-74
2023/08/10 15:33:05;;;;;;;2.20;1.20;;;;;;;21.60;45.55;101922.59;16133647;19;130369;-75
2023/08/10 15:38:27;;;;;;;3.60;1.33;;;;;;;21.59;45.83;101916.19;16131975;19;130645;-75
2023/08/10 15:43:49;;;;;;;1.75;1.00;;;;;;;21.59;45.63;101926.47;16135744;19;130430;-75
2023/08/10 15:49:11;;;;;;;3.25;1.20;;;;;;;21.59;45.41;101913.41;16133577;19;129770;-75
2023/08/10 15:54:33;;;;;;;3.28;1.52;;;;;;;21.60;45.52;101917.03;16135030;19;129256;-78
2023/08/10 15:59:55;;;;;;;5.85;1.98;;;;;;;21.60;45.73;101908.66;16170854;19;129672;-76
2023/08/10 16:05:19;;;;;;;4.25;1.75;;;;;;;21.61;45.99;101910.38;16183177;19;129236;-71
2023/08/10 16:10:41;;;;;;;5.07;2.60;;;;;;;21.60;45.85;101903.94;16186207;19;129246;-76
2023/08/10 16:16:05;;;;;;;10.82;4.22;;;;;;;21.61;45.92;101897.28;16197293;19;130762;-75
2023/08/10 16:21:27;;;;;;;10.03;4.60;;;;;;;21.61;45.71;101902.00;16206141;19;129832;-72
2023/08/10 16:26:50;;;;;;;11.00;4.53;;;;;;;21.60;46.03;101901.16;16195441;19;130581;-73
2023/08/10 16:32:12;;;;;;;11.57;4.70;;;;;;;21.59;45.76;101893.91;16205798;19;129202;-68
2023/08/10 16:37:33;;;;;;;9.80;4.60;;;;;;;21.61;46.22;101902.84;16201955;19;128600;-68
2023/08/10 16:42:55;;;;;;;8.30;4.65;;;;;;;21.62;45.97;101910.09;16200211;19;129925;-69
2023/08/10 16:48:17;;;;;;;7.57;4.53;;;;;;;21.65;46.26;101909.63;16203848;19;128311;-64
2023/08/10 16:53:41;;;;;;;8.43;4.80;;;;;;;21.65;46.16;101914.38;16197242;19;129639;-70
2023/08/10 16:59:03;;;;;;;10.13;4.22;;;;;;;21.65;46.35;101904.06;16200537;19;131506;-71
2023/08/10 17:04:25;;;;;;;7.60;4.03;;;;;;;21.67;46.38;101903.81;16196158;19;129471;-69
2023/08/10 17:09:47;;;;;;;6.53;3.50;;;;;;;21.74;46.08;101915.69;16190810;19;130044;-70
2023/08/10 17:15:09;;;;;;;8.20;3.17;;;;;;;21.83;45.92;101905.03;16171107;19;129285;-70
2023/08/10 17:20:31;;;;;;;7.00;3.03;;;;;;;21.91;45.87;101912.16;16167308;19;129483;-69
2023/08/10 17:25:53;;;;;;;4.85;2.50;;;;;;;21.96;45.47;101917.81;16142587;19;130622;-68
2023/08/10 17:31:16;;;;;;;5.75;2.55;;;;;;;21.99;45.77;101922.91;16120901;19;130305;-71
2023/08/10 17:36:38;;;;;;;4.47;2.30;;;;;;;22.02;45.65;101919.66;16042716;19;129705;-69
2023/08/10 17:42:00;;;;;;;4.95;2.03;;;;;;;22.04;45.39;101920.22;16119748;19;129888;-69
2023/08/10 17:47:22;;;;;;;10.77;2.40;;;;;;;22.05;45.62;101923.88;16115735;19;132808;-73
2023/08/10 17:52:44;;;;;;;5.32;2.00;;;;;;;22.05;45.45;101918.31;16116007;19;130901;-73
2023/08/10 17:58:06;;;;;;;5.30;2.35;;;;;;;22.01;45.80;101912.38;16117228;19;129695;-72
2023/08/10 18:03:28;;;;;;;8.65;2.28;;;;;;;21.96;45.79;101904.75;16114278;19;129743;-72
2023/08/10 18:08:50;;;;;;;4.13;1.50;;;;;;;21.95;46.10;101913.34;16119037;19;131176;-73
2023/08/10 18:14:12;;;;;;;9.55;1.60;;;;;;;21.93;46.22;101915.53;16114823;19;131205;-73
2023/08/10 18:19:33;;;;;;;6.20;2.30;;;;;;;21.91;46.22;101918.56;16110342;19;130094;-71
2023/08/10 18:24:56;;;;;;;4.55;1.73;;;;;;;21.91;46.55;101913.00;16112039;19;130303;-73
2023/08/10 18:30:19;;;;;;;5.22;1.92;;;;;;;21.89;46.71;101903.19;16110033;19;130345;-65
2023/08/10 18:35:41;;;;;;;4.78;1.80;;;;;;;21.86;46.86;101903.69;16112531;19;130341;-66
2023/08/10 18:41:04;;;;;;;5.18;2.00;;;;;;;21.85;47.07;101913.13;16117912;19;130243;-72
2023/08/10 18:46:26;;;;;;;7.05;2.05;;;;;;;21.86;46.94;101918.44;16117633;19;129879;-72
2023/08/10 18:51:48;;;;;;;8.68;2.00;;;;;;;21.85;47.15;101930.66;16117637;19;129271;-70
2023/08/10 18:57:10;;;;;;;5.07;1.55;;;;;;;21.85;47.28;101924.25;16119217;19;131198;-72
2023/08/10 19:02:32;;;;;;;4.47;1.98;;;;;;;21.83;47.40;101919.78;16114967;19;129753;-69
2023/08/10 19:07:54;;;;;;;4.70;1.83;;;;;;;21.82;47.54;101920.88;16115634;19;129866;-69
2023/08/10 19:13:16;;;;;;;4.07;1.90;;;;;;;21.81;47.61;101918.34;16120641;19;130901;-72
2023/08/10 19:18:38;;;;;;;8.00;2.00;;;;;;;21.83;47.57;101916.16;16114387;19;130465;-73
2023/08/10 19:24:00;;;;;;;8.60;2.60;;;;;;;21.82;48.07;101920.88;16113273;19;129710;-71
2023/08/10 19:29:23;;;;;;;19.75;2.45;;;;;;;21.83;48.17;101925.34;16115947;19;130559;-68
2023/08/10 19:34:45;;;;;;;10.45;1.98;;;;;;;21.85;48.07;101922.31;16121420;19;131534;-72
2023/08/10 19:40:08;;;;;;;12.68;2.38;;;;;;;21.87;48.14;101916.50;16133717;19;129226;-69
2023/08/10 19:45:30;;;;;;;10.23;2.42;;;;;;;21.88;48.47;101932.16;16127554;19;129548;-66
2023/08/10 19:50:52;;;;;;;11.57;2.20;;;;;;;21.88;48.74;101930.19;16130312;19;130894;-68
2023/08/10 19:56:14;;;;;;;17.15;2.63;;;;;;;21.89;48.52;101928.28;16129675;19;129553;-68
2023/08/10 20:01:37;;;;;;;14.57;2.15;;;;;;;21.92;48.38;101923.03;16123026;19;129483;-69
2023/08/10 20:06:58;;;;;;;6.53;2.00;;;;;;;21.90;48.58;101921.59;16129787;19;131414;-73
2023/08/10 20:12:21;;;;;;;10.60;2.20;;;;;;;21.91;48.92;101928.88;16130219;19;130962;-68
2023/08/10 20:17:42;;;;;;;15.82;2.03;;;;;;;21.90;48.79;101935.53;16128438;19;130198;-70
2023/08/10 20:23:04;;;;;;;12.77;2.25;;;;;;;21.89;48.88;101936.63;16127176;19;130428;-71
2023/08/10 20:28:28;;;;;;;6.35;2.03;;;;;;;21.87;48.65;101944.38;16127557;19;132817;-74
2023/08/10 20:33:51;;;;;;;8.65;2.15;;;;;;;21.83;48.93;101944.84;16127946;19;129483;-73
2023/08/10 20:39:13;;;;;;;9.07;2.47;;;;;;;21.80;48.93;101950.91;16127729;19;129745;-68
2023/08/10 20:44:35;;;;;;;10.00;2.10;;;;;;;21.77;48.50;101948.63;16124639;19;129307;-69
2023/08/10 20:49:57;;;;;;;10.40;1.70;;;;;;;21.77;48.80;101953.34;16127093;19;130855;-73
2023/08/10 20:55:19;;;;;;;6.60;2.13;;;;;;;21.75;48.67;101948.03;16127281;19;130666;-70
2023/08/10 21:00:41;;;;;;;5.10;1.95;;;;;;;21.73;48.56;101929.84;16114434;19;130902;-67
2023/08/10 21:06:03;;;;;;;4.68;1.88;;;;;;;21.70;49.03;101939.53;16127330;19;129614;-67
2023/08/10 21:11:25;;;;;;;5.97;1.83;;;;;;;21.70;48.67;101945.09;16125982;19;129466;-68
2023/08/10 21:16:48;;;;;;;11.40;1.70;;;;;;;21.69;48.46;101943.41;16129756;19;130105;-67
2023/08/10 21:22:11;;;;;;;7.40;2.25;;;;;;;21.68;48.65;101950.06;16120459;19;129870;-67
2023/08/10 21:27:33;;;;;;;3.90;1.70;;;;;;;21.66;48.67;101955.88;16121100;19;130475;-67
2023/08/10 21:32:55;;;;;;;4.47;1.73;;;;;;;21.65;48.91;101956.97;16114301;19;130591;-67
2023/08/10 21:38:17;;;;;;;4.30;1.70;;;;;;;21.64;48.46;101957.22;16117155;19;129141;-67
2023/08/10 21:43:39;;;;;;;7.47;1.60;;;;;;;21.63;48.45;101949.97;16116320;19;130028;-67
2023/08/10 21:49:03;;;;;;;4.75;1.90;;;;;;;21.62;48.92;101948.25;16120260;19;129637;-68
2023/08/10 21:54:25;;;;;;;4.20;1.50;;;;;;;21.62;48.67;101951.03;16112565;19;130587;-67
2023/08/10 21:59:47;;;;;;;7.75;2.03;;;;;;;21.59;48.68;101959.88;16111604;19;131885;-67
2023/08/10 22:05:09;;;;;;;3.72;1.65;;;;;;;21.59;48.52;101955.16;16118016;19;129593;-67
2023/08/10 22:10:31;;;;;;;3.13;1.38;;;;;;;21.58;48.85;101961.81;16120773;19;130610;-67
2023/08/10 22:15:53;;;;;;;4.22;1.60;;;;;;;21.58;48.65;101958.19;16112747;19;129575;-67
2023/08/10 22:21:16;;;;;;;5.22;1.52;;;;;;;21.56;48.56;101950.06;16114485;19;130779;-67
2023/08/10 22:26:38;;;;;;;5.72;1.50;;;;;;;21.55;48.43;101947.50;16113406;19;129637;-67
2023/08/10 22:32:00;;;;;;;8.40;1.98;;;;;;;21.54;48.55;101948.63;16108947;19;129486;-67
2023/08/10 22:37:23;;;;;;;4.28;1.40;;;;;;;21.54;48.76;101948.63;16109802;19;129788;-67
2023/08/10 22:42:45;;;;;;;4.22;1.50;;;;;;;21.52;48.73;101938.59;16110770;19;129902;-67
2023/08/10 22:48:07;;;;;;;3.95;1.42;;;;;;;21.51;48.83;101936.03;16115332;19;130687;-67
2023/08/10 22:53:29;;;;;;;3.85;1.67;;;;;;;21.50;48.81;101935.19;16110473;19;130668;-67
2023/08/10 22:58:51;;;;;;;4.00;1.35;;;;;;;21.50;48.66;101934.31;16107252;19;130437;-69
2023/08/10 23:04:13;;;;;;;2.85;1.60;;;;;;;21.49;48.81;101938.19;16112465;19;130668;-67
2023/08/10 23:09:35;;;;;;;2.05;1.30;;;;;;;21.48;48.38;101926.19;16105095;19;130449;-68
2023/08/10 23:14:58;;;;;;;3.03;1.52;;;;;;;21.48;48.33;101931.75;16116951;19;129671;-67
2023/08/10 23:20:20;;;;;;;2.97;1.50;;;;;;;21.47;48.34;101935.63;16120849;19;130147;-67
2023/08/10 23:25:42;;;;;;;2.80;1.50;;;;;;;21.46;48.53;101936.72;16127162;19;130361;-67
2023/08/10 23:31:06;;;;;;;3.53;1.27;;;;;;;21.46;48.31;101928.38;16123802;19;130049;-68
2023/08/10 23:36:28;;;;;;;2.40;1.37;;;;;;;21.45;48.55;101932.22;16124332;19;130211;-68
2023/08/10 23:41:51;;;;;;;3.88;1.60;;;;;;;21.44;48.76;101930.53;16129665;19;129798;-68
2023/08/10 23:47:14;;;;;;;2.53;1.27;;;;;;;21.45;48.32;101925.84;16124620;19;130795;-68
2023/08/10 23:52:38;;;;;;;3.40;1.30;;;;;;;21.44;48.56;101924.13;16125675;19;131294;-67
2023/08/10 23:58:00;;;;;;;2.08;1.17;;;;;;;21.43;48.69;101914.91;16121003;19;129697;-67
